Time;durP1;ratioP1;P1;durP2;ratioP2;P2;SDS_P1;SDS_P2;PMS_P1;PMS_P2;Temp;Humidity;BMP_temperature;BMP_pressure;BME280_temperature;BME280_humidity;BME280_pressure;Samples;Min_cycle;Max_cycle;Signal;HPM_P1;HPM_P2
2023/05/26 00:01:05;;;;;;;7.13;2.63;;;10.60;99.90;;;;;;4987698;28;20038;-74
2023/05/26 00:03:31;;;;;;;8.77;2.88;;;10.50;99.90;;;;;;4985450;28;20050;-75
2023/05/26 00:05:56;;;;;;;5.10;1.55;;;10.50;99.90;;;;;;4969657;28;20053;-74
2023/05/26 00:08:22;;;;;;;8.88;3.45;;;10.40;99.90;;;;;;4988302;28;20039;-74
2023/05/26 00:10:48;;;;;;;10.80;4.00;;;10.40;99.90;;;;;;4986956;28;20650;-74
2023/05/26 00:13:14;;;;;;;6.13;1.52;;;10.40;99.90;;;;;;5002864;28;20137;-74
2023/05/26 00:15:41;;;;;;;5.90;1.75;;;10.40;99.90;;;;;;5005039;28;20164;-74
2023/05/26 00:18:06;;;;;;;5.30;2.05;;;10.40;99.90;;;;;;5004748;28;20065;-74
2023/05/26 00:20:33;;;;;;;10.05;2.20;;;10.40;99.90;;;;;;5005300;28;20129;-74
2023/05/26 00:22:59;;;;;;;7.65;2.83;;;10.40;99.90;;;;;;5006723;28;20089;-74
2023/05/26 00:25:25;;;;;;;11.90;4.10;;;10.40;99.90;;;;;;5006300;28;20038;-74
2023/05/26 00:27:50;;;;;;;7.63;2.25;;;10.30;99.90;;;;;;5006499;28;20456;-74
2023/05/26 00:30:16;;;;;;;3.63;1.52;;;10.30;99.90;;;;;;5006858;28;20060;-74
2023/05/26 00:32:42;;;;;;;3.60;1.90;;;10.30;99.90;;;;;;5005827;28;20069;-74
2023/05/26 00:35:08;;;;;;;10.23;3.03;;;10.20;99.90;;;;;;5005818;28;20054;-74
2023/05/26 00:37:33;;;;;;;5.68;2.20;;;10.30;99.90;;;;;;5006298;28;20133;-74
2023/05/26 00:39:59;;;;;;;4.70;2.40;;;10.30;99.90;;;;;;5005378;28;20081;-74
2023/05/26 00:42:25;;;;;;;11.75;2.03;;;10.30;99.90;;;;;;5006696;28;20528;-74
2023/05/26 00:44:51;;;;;;;14.40;2.95;;;10.30;99.90;;;;;;5006630;28;20042;-74
2023/05/26 00:47:17;;;;;;;5.93;1.52;;;10.20;99.90;;;;;;5005358;28;20042;-74
2023/05/26 00:49:44;;;;;;;9.35;2.72;;;10.30;99.90;;;;;;5006125;28;20121;-74
2023/05/26 00:52:10;;;;;;;3.55;1.70;;;10.20;99.90;;;;;;5006592;28;20045;-74
2023/05/26 00:54:37;;;;;;;8.70;1.88;;;10.30;99.90;;;;;;5005651;28;20129;-75
2023/05/26 00:57:03;;;;;;;8.30;2.47;;;10.20;99.90;;;;;;5006324;28;20104;-74
2023/05/26 00:59:29;;;;;;;5.38;2.20;;;10.20;99.90;;;;;;5005881;28;20104;-75
2023/05/26 01:01:55;;;;;;;6.28;2.03;;;10.20;99.90;;;;;;5005461;28;20472;-75
2023/05/26 01:04:21;;;;;;;10.15;2.78;;;10.20;99.90;;;;;;5006822;28;20050;-74
2023/05/26 01:06:49;;;;;;;4.85;2.47;;;10.10;99.90;;;;;;5005671;28;20108;-74
2023/05/26 01:09:15;;;;;;;4.78;1.67;;;10.20;99.90;;;;;;5006040;28;20045;-74
2023/05/26 01:11:56;;;;;;;9.65;2.92;;;10.20;99.90;;;;;;5005149;28;20084;-74
2023/05/26 01:14:39;;;;;;;8.75;1.55;;;10.20;99.90;;;;;;5006858;28;20100;-74
2023/05/26 01:17:18;;;;;;;11.68;2.53;;;10.10;99.90;;;;;;5004845;28;20046;-73
2023/05/26 01:19:46;;;;;;;9.02;2.28;;;10.10;99.90;;;;;;5005820;28;20050;-74
2023/05/26 01:22:38;;;;;;;5.90;2.10;;;10.10;99.90;;;;;;5005326;28;20073;-74
2023/05/26 01:25:30;;;;;;;8.10;2.63;;;10.10;99.90;;;;;;5002154;28;20058;-75
2023/05/26 01:28:10;;;;;;;6.32;1.52;;;10.10;99.90;;;;;;5005582;28;20038;-75
2023/05/26 01:30:36;;;;;;;17.20;3.20;;;10.00;99.90;;;;;;5005598;28;20050;-74
2023/05/26 01:33:02;;;;;;;5.45;1.48;;;10.00;99.90;;;;;;5004633;28;20124;-75
2023/05/26 01:35:28;;;;;;;12.13;4.25;;;10.00;99.90;;;;;;5005584;28;20181;-75
2023/05/26 01:37:55;;;;;;;8.35;2.92;;;10.00;99.90;;;;;;5005534;28;20045;-74
2023/05/26 01:40:22;;;;;;;8.18;1.92;;;10.00;99.90;;;;;;5005721;28;20686;-74
2023/05/26 01:42:57;;;;;;;6.93;2.55;;;10.00;99.90;;;;;;5004544;28;20050;-74
2023/05/26 01:45:25;;;;;;;5.70;1.67;;;10.00;99.90;;;;;;5000775;28;20066;-74
2023/05/26 01:47:57;;;;;;;6.80;1.80;;;10.00;99.90;;;;;;4985284;28;20057;-74
2023/05/26 01:50:31;;;;;;;3.30;1.53;;;10.00;99.90;;;;;;4986157;28;20139;-74
2023/05/26 01:52:58;;;;;;;8.60;3.72;;;9.90;99.90;;;;;;4985368;28;21060;-75
2023/05/26 01:55:26;;;;;;;4.97;1.98;;;9.90;99.90;;;;;;5001695;28;20065;-74
2023/05/26 01:57:55;;;;;;;5.93;3.05;;;9.90;99.90;;;;;;5004864;28;20045;-74
2023/05/26 02:00:25;;;;;;;7.65;2.25;;;9.80;99.90;;;;;;5005600;28;20042;-74
2023/05/26 02:02:51;;;;;;;5.45;2.40;;;9.90;99.90;;;;;;5004572;28;20058;-74
2023/05/26 02:05:17;;;;;;;3.47;2.00;;;9.80;99.90;;;;;;5005526;28;20068;-74
2023/05/26 02:07:42;;;;;;;3.55;1.60;;;9.80;99.90;;;;;;5004401;28;20053;-74
2023/05/26 02:10:08;;;;;;;5.35;2.35;;;9.80;99.90;;;;;;5004940;28;20046;-74
2023/05/26 02:12:34;;;;;;;11.68;2.13;;;9.80;99.90;;;;;;5004189;28;20125;-74
2023/05/26 02:14:59;;;;;;;8.07;2.72;;;9.80;99.90;;;;;;5003364;28;20080;-74
2023/05/26 02:17:25;;;;;;;5.80;1.65;;;9.80;99.90;;;;;;5002454;28;20065;-74
2023/05/26 02:19:52;;;;;;;4.97;1.75;;;9.80;99.90;;;;;;5005204;28;20074;-74
2023/05/26 02:22:17;;;;;;;8.00;1.40;;;9.80;99.90;;;;;;5003252;28;20492;-74
2023/05/26 02:24:43;;;;;;;6.22;2.22;;;9.80;99.90;;;;;;5002860;28;20068;-74
2023/05/26 02:27:08;;;;;;;6.95;3.38;;;9.80;99.90;;;;;;5004984;28;20084;-74
2023/05/26 02:29:34;;;;;;;7.25;2.95;;;9.80;99.90;;;;;;5004183;28;20045;-74
2023/05/26 02:32:00;;;;;;;10.02;2.08;;;9.80;99.90;;;;;;5002511;28;20038;-74
2023/05/26 02:34:25;;;;;;;4.35;1.70;;;9.70;99.90;;;;;;5004480;28;20508;-75
2023/05/26 02:36:55;;;;;;;6.43;2.38;;;9.70;99.90;;;;;;5004948;28;20038;-74
2023/05/26 02:39:21;;;;;;;14.77;2.70;;;9.80;99.90;;;;;;5003842;28;20539;-74
2023/05/26 02:41:47;;;;;;;7.40;1.80;;;9.70;99.90;;;;;;5004400;28;20112;-74
2023/05/26 02:44:13;;;;;;;6.10;1.73;;;9.70;99.90;;;;;;5004066;28;20129;-74
2023/05/26 02:46:39;;;;;;;8.57;2.10;;;9.70;99.90;;;;;;5001581;28;20125;-75
2023/05/26 02:49:05;;;;;;;2.70;1.83;;;9.70;99.90;;;;;;5004485;28;20052;-74
2023/05/26 02:51:32;;;;;;;8.10;2.45;;;9.70;99.90;;;;;;5003979;28;20038;-74
2023/05/26 02:53:58;;;;;;;23.38;2.67;;;9.70;99.90;;;;;;5003996;28;20074;-75
2023/05/26 02:56:23;;;;;;;5.20;1.70;;;9.70;99.90;;;;;;5004464;28;20543;-74
2023/05/26 02:58:49;;;;;;;7.15;1.95;;;9.70;99.90;;;;;;5004081;28;20041;-74
2023/05/26 03:01:16;;;;;;;10.88;2.25;;;9.70;99.90;;;;;;5004189;28;20613;-74
2023/05/26 03:03:41;;;;;;;7.88;2.13;;;9.70;99.90;;;;;;5002689;28;20049;-74
2023/05/26 03:06:07;;;;;;;7.60;2.17;;;9.70;99.90;;;;;;5002878;28;20388;-74
2023/05/26 03:08:34;;;;;;;6.38;2.58;;;9.60;99.90;;;;;;5003360;28;20099;-74
2023/05/26 03:10:59;;;;;;;6.30;1.83;;;9.60;99.90;;;;;;5003727;28;20225;-75
2023/05/26 03:13:25;;;;;;;1.63;1.00;;;9.60;99.90;;;;;;5004126;28;20125;-74
2023/05/26 03:15:50;;;;;;;7.30;3.03;;;9.60;99.90;;;;;;5004179;28;20049;-74
2023/05/26 03:18:16;;;;;;;8.07;2.33;;;9.60;99.90;;;;;;5001278;28;20081;-74
2023/05/26 03:20:46;;;;;;;9.35;2.45;;;9.60;99.90;;;;;;5003865;28;20100;-74
2023/05/26 03:23:13;;;;;;;10.82;2.75;;;9.60;99.90;;;;;;5002760;28;20050;-74
2023/05/26 03:25:40;;;;;;;7.82;2.92;;;9.60;99.90;;;;;;5002977;28;20038;-74
2023/05/26 03:28:05;;;;;;;12.70;2.95;;;9.60;99.90;;;;;;5003400;28;20484;-75
2023/05/26 03:30:31;;;;;;;6.40;2.25;;;9.60;99.90;;;;;;5002852;28;20046;-75
2023/05/26 03:32:57;;;;;;;12.52;2.22;;;9.60;99.90;;;;;;5001891;28;20189;-75
2023/05/26 03:35:22;;;;;;;8.70;1.80;;;9.50;99.90;;;;;;5004117;28;20045;-74
2023/05/26 03:37:49;;;;;;;3.15;1.45;;;9.50;99.90;;;;;;5003322;28;20116;-74
2023/05/26 03:40:14;;;;;;;9.10;3.20;;;9.60;99.90;;;;;;5003560;28;20045;-74
2023/05/26 03:42:40;;;;;;;6.88;2.53;;;9.50;99.90;;;;;;5003230;28;20034;-74
2023/05/26 03:45:06;;;;;;;3.65;1.38;;;9.50;99.90;;;;;;5002229;28;20104;-74
2023/05/26 03:47:32;;;;;;;4.05;1.52;;;9.50;99.90;;;;;;4981462;28;20053;-75
2023/05/26 03:49:57;;;;;;;7.95;2.53;;;9.50;99.90;;;;;;4982567;28;20042;-75
2023/05/26 03:52:24;;;;;;;8.75;2.50;;;9.50;99.90;;;;;;4984017;28;20493;-74
2023/05/26 03:54:49;;;;;;;11.23;2.50;;;9.50;99.90;;;;;;4993777;28;20124;-74
2023/05/26 03:57:15;;;;;;;7.30;2.63;;;9.50;99.90;;;;;;5002980;28;20849;-74
2023/05/26 03:59:40;;;;;;;6.35;1.30;;;9.50;99.90;;;;;;5003124;28;20092;-74
2023/05/26 04:02:06;;;;;;;9.70;2.17;;;9.50;99.90;;;;;;5002246;28;20038;-74
2023/05/26 04:04:32;;;;;;;10.45;2.17;;;9.50;99.90;;;;;;5003200;28;20075;-74
2023/05/26 04:06:58;;;;;;;11.23;1.85;;;9.60;99.90;;;;;;5002775;28;20046;-74
2023/05/26 04:09:24;;;;;;;2.80;1.25;;;9.60;99.90;;;;;;5001992;28;20045;-74
2023/05/26 04:11:49;;;;;;;5.00;2.33;;;9.60;99.90;;;;;;5001338;28;20661;-74
2023/05/26 04:14:15;;;;;;;4.60;1.38;;;9.60;99.90;;;;;;5003436;28;20141;-74
2023/05/26 04:16:41;;;;;;;6.60;2.10;;;9.60;99.90;;;;;;5001640;28;20046;-74
2023/05/26 04:19:06;;;;;;;8.45;2.22;;;9.60;99.90;;;;;;5003444;28;20575;-74
2023/05/26 04:21:32;;;;;;;3.80;1.25;;;9.70;99.90;;;;;;5002580;28;20096;-74
2023/05/26 04:23:57;;;;;;;15.32;3.33;;;9.70;99.90;;;;;;5003027;28;20054;-75
2023/05/26 04:26:24;;;;;;;14.52;2.13;;;9.60;99.90;;;;;;5003403;28;20121;-74
2023/05/26 04:28:52;;;;;;;14.02;2.10;;;9.60;99.90;;;;;;5001510;28;20058;-74
2023/05/26 04:31:17;;;;;;;3.88;1.35;;;9.70;99.90;;;;;;5002984;28;20038;-74
2023/05/26 04:33:44;;;;;;;5.47;2.05;;;9.70;99.90;;;;;;5001848;28;20042;-74
2023/05/26 04:36:10;;;;;;;6.30;2.17;;;9.70;99.90;;;;;;5001667;28;20061;-74
2023/05/26 04:38:37;;;;;;;9.52;3.13;;;9.70;99.90;;;;;;5002784;28;20042;-74
2023/05/26 04:41:07;;;;;;;6.75;2.08;;;9.80;99.90;;;;;;5004928;28;20081;-75
2023/05/26 04:43:35;;;;;;;6.80;1.67;;;9.80;99.90;;;;;;5005370;28;20046;-74
2023/05/26 04:46:02;;;;;;;7.82;1.70;;;9.80;99.90;;;;;;4997403;28;20100;-74
2023/05/26 04:48:28;;;;;;;7.00;1.85;;;9.80;99.90;;;;;;4984025;28;20053;-74
2023/05/26 04:50:54;;;;;;;7.75;2.13;;;9.80;99.90;;;;;;4986435;28;20046;-74
2023/05/26 04:53:20;;;;;;;5.50;2.00;;;9.90;99.90;;;;;;4985616;28;20512;-74
2023/05/26 04:55:47;;;;;;;4.95;2.20;;;9.90;99.90;;;;;;4984877;28;20197;-74
2023/05/26 04:58:12;;;;;;;6.10;3.00;;;9.90;99.90;;;;;;4997993;28;20076;-74
2023/05/26 05:00:38;;;;;;;4.10;2.15;;;9.90;99.90;;;;;;5006074;28;20049;-74
2023/05/26 05:03:04;;;;;;;7.20;2.15;;;10.00;99.90;;;;;;5004941;28;20508;-75
2023/05/26 05:05:32;;;;;;;6.68;2.85;;;10.10;99.90;;;;;;5006115;28;20042;-75
2023/05/26 05:07:57;;;;;;;7.18;1.85;;;10.10;99.90;;;;;;5004472;28;20499;-75
2023/05/26 05:10:23;;;;;;;12.30;2.30;;;10.10;99.90;;;;;;5004813;28;20038;-74
2023/05/26 05:12:49;;;;;;;19.40;2.35;;;10.10;99.90;;;;;;5005463;28;20086;-75
2023/05/26 05:15:15;;;;;;;3.38;2.28;;;10.20;99.90;;;;;;5004060;28;20065;-74
2023/05/26 05:17:40;;;;;;;9.40;1.95;;;10.20;99.90;;;;;;5003801;28;20124;-74
2023/05/26 05:20:07;;;;;;;11.18;2.13;;;10.30;99.90;;;;;;5004022;28;20053;-75
2023/05/26 05:22:33;;;;;;;7.70;2.13;;;10.30;99.90;;;;;;5004710;28;20057;-74
2023/05/26 05:24:58;;;;;;;6.18;2.38;;;10.30;99.90;;;;;;5006053;28;20050;-74
2023/05/26 05:27:24;;;;;;;8.52;1.95;;;10.40;99.90;;;;;;5005216;28;20719;-75
2023/05/26 05:29:49;;;;;;;11.35;2.17;;;10.40;99.90;;;;;;5002784;28;20054;-74
2023/05/26 05:32:15;;;;;;;6.80;3.38;;;10.40;99.90;;;;;;5004330;28;20105;-74
2023/05/26 05:34:41;;;;;;;8.70;2.10;;;10.40;99.90;;;;;;5003686;28;20046;-74
2023/05/26 05:37:06;;;;;;;5.50;2.40;;;10.50;99.90;;;;;;4990174;28;20042;-75
2023/05/26 05:39:32;;;;;;;6.20;1.70;;;10.50;99.90;;;;;;5002632;28;20091;-74
2023/05/26 05:41:57;;;;;;;7.30;2.53;;;10.60;99.90;;;;;;5005174;28;20636;-74
2023/05/26 05:44:23;;;;;;;5.57;1.45;;;10.60;99.90;;;;;;4992534;28;20043;-73
2023/05/26 05:46:49;;;;;;;3.22;2.05;;;10.60;99.90;;;;;;4987338;28;20062;-74
2023/05/26 05:49:14;;;;;;;8.93;2.25;;;10.60;99.90;;;;;;5001862;28;20045;-74
2023/05/26 05:51:40;;;;;;;6.32;1.70;;;10.60;99.90;;;;;;5004481;28;20496;-74
2023/05/26 05:54:05;;;;;;;2.85;1.95;;;10.70;99.90;;;;;;4998690;28;20152;-73
2023/05/26 05:56:31;;;;;;;4.78;2.08;;;10.80;99.90;;;;;;5004181;28;20049;-73
2023/05/26 05:58:56;;;;;;;6.28;1.40;;;10.80;99.90;;;;;;5002682;28;20071;-74
2023/05/26 06:01:22;;;;;;;5.93;1.88;;;10.80;99.90;;;;;;5001028;28;20084;-72
2023/05/26 06:03:48;;;;;;;6.63;1.45;;;10.80;99.90;;;;;;4989379;28;20556;-74
2023/05/26 06:06:15;;;;;;;5.95;1.60;;;10.90;99.90;;;;;;5000043;28;20034;-74
2023/05/26 06:08:40;;;;;;;4.88;2.30;;;10.90;99.90;;;;;;5003852;28;20489;-74
2023/05/26 06:11:06;;;;;;;6.25;1.50;;;11.00;99.90;;;;;;5001434;28;20129;-74
2023/05/26 06:13:32;;;;;;;8.45;1.70;;;11.00;99.90;;;;;;4993065;28;20513;-73
2023/05/26 06:15:57;;;;;;;5.10;1.30;;;11.00;99.90;;;;;;4996592;28;20096;-73
2023/05/26 06:18:23;;;;;;;7.13;1.58;;;11.00;99.90;;;;;;5003325;28;20488;-73
2023/05/26 06:20:49;;;;;;;10.18;1.77;;;11.10;99.90;;;;;;5004792;28;20198;-73
2023/05/26 06:23:15;;;;;;;11.88;1.42;;;11.10;99.90;;;;;;5003075;28;20082;-73
2023/05/26 06:25:40;;;;;;;10.55;2.35;;;11.10;99.90;;;;;;5003975;28;20080;-74
2023/05/26 06:28:06;;;;;;;10.38;1.75;;;11.10;99.90;;;;;;4998601;28;20101;-74
2023/05/26 06:30:31;;;;;;;14.70;2.05;;;11.20;99.90;;;;;;5001861;28;20054;-74
2023/05/26 06:32:57;;;;;;;4.82;1.77;;;11.20;99.90;;;;;;5003194;28;20036;-74
2023/05/26 06:35:23;;;;;;;7.55;2.45;;;11.20;99.90;;;;;;5000659;28;20077;-74
2023/05/26 06:37:48;;;;;;;11.10;1.83;;;11.30;99.90;;;;;;5001952;28;20050;-72
2023/05/26 06:40:14;;;;;;;8.77;2.05;;;11.40;99.90;;;;;;4998306;28;20041;-75
2023/05/26 06:42:41;;;;;;;5.03;1.42;;;11.40;99.90;;;;;;4998836;28;20462;-74
2023/05/26 06:45:07;;;;;;;4.30;2.30;;;11.40;99.90;;;;;;4999463;28;20049;-73
2023/05/26 06:47:32;;;;;;;3.63;1.15;;;11.40;99.90;;;;;;4999079;28;20050;-74
2023/05/26 06:49:58;;;;;;;3.70;1.23;;;11.50;99.90;;;;;;5003421;28;20045;-73
2023/05/26 06:52:24;;;;;;;4.38;1.05;;;11.50;99.90;;;;;;5000774;28;20034;-73
2023/05/26 06:54:49;;;;;;;3.47;1.92;;;11.50;99.90;;;;;;5002837;28;20404;-73
2023/05/26 06:57:16;;;;;;;8.10;1.90;;;11.50;99.90;;;;;;5000799;28;20044;-73
2023/05/26 06:59:42;;;;;;;4.43;2.08;;;11.60;99.90;;;;;;5000624;28;20092;-73
2023/05/26 07:02:07;;;;;;;6.50;1.90;;;11.60;99.90;;;;;;5002616;28;20045;-73
2023/05/26 07:04:33;;;;;;;9.88;2.15;;;11.60;99.90;;;;;;5002395;28;20038;-74
2023/05/26 07:06:59;;;;;;;16.33;1.95;;;11.60;99.90;;;;;;5001148;28;20117;-73
2023/05/26 07:09:24;;;;;;;7.72;2.03;;;11.60;99.90;;;;;;5001304;28;20049;-73
2023/05/26 07:11:50;;;;;;;3.97;0.90;;;11.70;99.90;;;;;;5002673;28;20049;-73
2023/05/26 07:14:16;;;;;;;17.52;1.50;;;11.70;99.90;;;;;;5000859;28;20050;-73
2023/05/26 07:16:41;;;;;;;8.95;2.55;;;11.80;99.90;;;;;;4999883;28;20050;-73
2023/05/26 07:19:07;;;;;;;18.88;2.38;;;11.80;99.90;;;;;;5002306;28;20092;-74
2023/05/26 07:21:32;;;;;;;2.13;1.17;;;11.80;99.90;;;;;;5002292;28;20041;-73
2023/05/26 07:23:58;;;;;;;8.18;2.28;;;11.90;99.90;;;;;;5002335;28;20103;-73
2023/05/26 07:26:24;;;;;;;6.75;2.03;;;11.80;99.90;;;;;;5001873;28;20053;-73
2023/05/26 07:28:50;;;;;;;6.82;1.80;;;11.90;99.90;;;;;;5001873;28;20420;-73
2023/05/26 07:31:17;;;;;;;2.72;1.52;;;11.90;99.90;;;;;;5001780;28;20277;-73
2023/05/26 07:33:43;;;;;;;7.00;1.58;;;11.90;99.90;;;;;;5000987;28;20234;-74
2023/05/26 07:36:08;;;;;;;3.35;1.63;;;12.00;99.90;;;;;;4984451;28;20098;-73
2023/05/26 07:38:34;;;;;;;8.52;1.70;;;12.00;99.90;;;;;;5002122;28;20532;-74
2023/05/26 07:40:59;;;;;;;6.80;1.48;;;12.00;99.90;;;;;;5001536;28;20050;-74
2023/05/26 07:43:25;;;;;;;7.45;1.70;;;12.00;99.90;;;;;;5003268;28;20045;-73
2023/05/26 07:45:50;;;;;;;5.55;2.58;;;12.10;99.90;;;;;;4994162;28;20220;-74
2023/05/26 07:48:16;;;;;;;5.85;1.83;;;12.10;99.90;;;;;;4982745;28;20058;-73
2023/05/26 07:50:42;;;;;;;5.20;1.70;;;12.10;99.90;;;;;;4964752;28;20239;-74
2023/05/26 07:53:07;;;;;;;1.95;1.20;;;12.10;99.90;;;;;;4982898;28;20034;-73
2023/05/26 07:55:33;;;;;;;4.55;1.85;;;12.20;99.90;;;;;;4994458;28;20493;-73
2023/05/26 07:57:59;;;;;;;3.22;0.98;;;12.20;99.90;;;;;;5001836;28;20428;-74
2023/05/26 08:00:25;;;;;;;3.72;1.65;;;12.30;99.90;;;;;;5000938;28;20085;-74
2023/05/26 08:02:52;;;;;;;2.00;0.98;;;12.30;99.90;;;;;;5001811;28;20553;-74
2023/05/26 08:05:17;;;;;;;5.80;1.60;;;12.30;99.90;;;;;;5002239;28;20057;-74
2023/05/26 08:07:43;;;;;;;9.55;2.28;;;12.30;99.90;;;;;;4993089;28;20031;-74
2023/05/26 08:10:09;;;;;;;5.72;1.27;;;12.30;99.90;;;;;;4975897;28;20054;-74
2023/05/26 08:12:35;;;;;;;13.13;1.63;;;12.40;99.90;;;;;;4999538;28;20116;-74
2023/05/26 08:15:11;;;;;;;6.53;1.85;;;12.40;99.90;;;;;;5000252;28;20496;-74
2023/05/26 08:17:36;;;;;;;2.97;1.15;;;12.40;99.90;;;;;;5001945;28;20061;-74
2023/05/26 08:20:02;;;;;;;4.90;1.70;;;12.50;99.90;;;;;;5005956;28;20080;-73
2023/05/26 08:22:28;;;;;;;3.55;1.00;;;12.50;99.90;;;;;;5002216;28;20069;-73
2023/05/26 08:24:54;;;;;;;6.60;1.10;;;12.50;99.90;;;;;;5004935;28;20092;-74
2023/05/26 08:27:20;;;;;;;7.30;1.65;;;12.50;99.90;;;;;;4996458;28;20133;-73
2023/05/26 08:29:45;;;;;;;15.82;3.05;;;12.60;99.90;;;;;;4986642;28;20055;-73
2023/05/26 08:32:11;;;;;;;7.45;1.75;;;12.60;99.90;;;;;;4985227;28;20053;-73
2023/05/26 08:34:36;;;;;;;9.25;1.50;;;12.60;99.90;;;;;;4986217;28;20069;-73
2023/05/26 08:37:02;;;;;;;5.40;1.13;;;12.60;99.90;;;;;;5002634;28;20073;-73
2023/05/26 08:39:27;;;;;;;10.05;1.20;;;12.70;99.90;;;;;;5005714;28;20112;-73
2023/05/26 08:41:59;;;;;;;3.67;1.52;;;12.70;99.90;;;;;;5005621;28;20568;-73
2023/05/26 08:44:26;;;;;;;4.75;1.42;;;12.70;99.90;;;;;;5006230;28;20112;-73
2023/05/26 08:46:55;;;;;;;6.10;1.67;;;12.70;99.90;;;;;;5003684;28;20473;-73
2023/05/26 08:49:21;;;;;;;4.30;1.02;;;12.70;99.90;;;;;;5004761;28;20427;-73
2023/05/26 08:51:55;;;;;;;11.02;2.67;;;12.80;99.90;;;;;;5005625;28;20038;-73
2023/05/26 08:54:21;;;;;;;3.05;2.30;;;12.70;99.90;;;;;;5004975;28;20050;-73
2023/05/26 08:56:48;;;;;;;4.35;1.20;;;12.80;99.90;;;;;;5004448;28;20112;-74
2023/05/26 08:59:16;;;;;;;1.65;1.15;;;12.80;99.90;;;;;;5000711;28;20515;-73
2023/05/26 09:01:42;;;;;;;14.13;1.05;;;12.80;99.90;;;;;;5003923;28;20046;-74
2023/05/26 09:04:08;;;;;;;4.57;1.40;;;12.90;99.90;;;;;;5002484;28;20038;-75
2023/05/26 09:06:42;;;;;;;4.78;1.27;;;12.90;99.90;;;;;;5004406;28;20041;-74
2023/05/26 09:09:08;;;;;;;6.63;1.20;;;13.00;99.90;;;;;;5002771;28;20049;-75
2023/05/26 09:11:40;;;;;;;3.53;1.33;;;13.00;99.90;;;;;;4996169;28;20495;-76
2023/05/26 09:14:06;;;;;;;2.75;1.65;;;13.00;99.90;;;;;;5004989;28;20097;-75
2023/05/26 09:16:31;;;;;;;2.28;1.33;;;13.00;99.90;;;;;;5003126;28;20065;-75
2023/05/26 09:18:58;;;;;;;4.88;1.23;;;13.00;99.90;;;;;;5002097;28;20512;-76
2023/05/26 09:21:26;;;;;;;3.97;1.70;;;13.10;99.90;;;;;;4997427;28;20041;-76
2023/05/26 09:23:56;;;;;;;9.93;2.25;;;13.10;99.90;;;;;;5004024;28;20330;-76
2023/05/26 09:26:33;;;;;;;5.55;1.80;;;13.10;99.90;;;;;;5003012;28;20034;-75
2023/05/26 09:29:00;;;;;;;5.95;1.00;;;13.10;99.90;;;;;;5002627;28;20288;-75
2023/05/26 09:31:36;;;;;;;3.55;1.58;;;13.10;99.90;;;;;;5002751;28;20088;-75
2023/05/26 09:34:02;;;;;;;3.17;1.85;;;13.20;99.90;;;;;;5003261;28;20121;-75
2023/05/26 09:36:27;;;;;;;7.38;2.47;;;13.20;99.90;;;;;;5004129;28;20121;-76
2023/05/26 09:38:53;;;;;;;6.20;1.48;;;13.20;99.90;;;;;;5004977;28;20127;-75
2023/05/26 09:41:19;;;;;;;6.70;2.78;;;13.30;99.90;;;;;;5004746;28;20042;-75
2023/05/26 09:43:45;;;;;;;10.35;1.90;;;13.30;99.90;;;;;;5003969;28;20626;-75
2023/05/26 09:46:23;;;;;;;8.40;1.08;;;13.30;99.90;;;;;;4993153;28;20045;-75
2023/05/26 09:48:50;;;;;;;6.53;1.95;;;13.30;99.90;;;;;;4985608;28;20467;-75
2023/05/26 09:51:28;;;;;;;3.10;1.15;;;13.30;99.90;;;;;;5002645;28;20042;-76
2023/05/26 09:53:53;;;;;;;4.22;2.47;;;13.40;99.90;;;;;;5003672;28;20052;-75
2023/05/26 09:56:20;;;;;;;6.47;1.20;;;13.40;99.90;;;;;;5004043;28;20037;-75
2023/05/26 09:58:47;;;;;;;4.93;1.55;;;13.40;99.90;;;;;;5002392;28;20659;-76
2023/05/26 10:01:14;;;;;;;4.25;1.40;;;13.40;99.90;;;;;;5002265;28;20046;-76
2023/05/26 10:03:39;;;;;;;3.60;1.38;;;13.40;99.90;;;;;;5003584;28;20081;-76
2023/05/26 10:06:06;;;;;;;9.95;1.85;;;13.40;99.90;;;;;;5003564;28;20430;-75
2023/05/26 10:08:32;;;;;;;6.68;1.42;;;13.50;99.90;;;;;;5001239;28;20046;-75
2023/05/26 10:10:58;;;;;;;13.45;1.70;;;13.50;99.90;;;;;;5002767;28;20505;-76
2023/05/26 10:13:24;;;;;;;7.43;1.65;;;13.50;99.90;;;;;;5001942;28;20071;-75
2023/05/26 10:15:49;;;;;;;3.78;2.15;;;13.50;99.90;;;;;;5000413;28;20071;-74
2023/05/26 10:18:15;;;;;;;16.67;1.77;;;13.60;99.90;;;;;;5003463;28;20050;-75
2023/05/26 10:20:46;;;;;;;7.50;1.35;;;13.60;99.90;;;;;;4994426;28;20041;-74
2023/05/26 10:23:19;;;;;;;2.90;1.23;;;13.60;99.90;;;;;;5003760;28;20056;-75
2023/05/26 10:25:50;;;;;;;2.13;1.02;;;13.60;99.90;;;;;;5000162;28;20095;-75
2023/05/26 10:28:37;;;;;;;4.18;1.48;;;13.60;99.90;;;;;;5003647;28;20064;-75
2023/05/26 10:31:03;;;;;;;4.47;1.27;;;13.60;99.90;;;;;;5001857;28;20057;-75
2023/05/26 10:33:43;;;;;;;6.63;1.55;;;13.60;99.90;;;;;;5002910;28;20384;-75
2023/05/26 10:36:17;;;;;;;6.00;1.20;;;13.70;99.90;;;;;;4983890;28;20096;-75
2023/05/26 10:38:47;;;;;;;4.63;1.80;;;13.70;99.90;;;;;;4994913;28;20197;-75
2023/05/26 10:41:34;;;;;;;8.10;2.63;;;13.80;99.90;;;;;;5003327;28;20073;-75
2023/05/26 10:44:00;;;;;;;7.28;2.25;;;13.80;99.90;;;;;;4991212;28;20374;-77
2023/05/26 10:46:36;;;;;;;4.90;1.95;;;13.90;99.90;;;;;;5000545;28;20073;-77
2023/05/26 10:49:02;;;;;;;4.45;1.33;;;13.90;99.90;;;;;;5001235;28;20107;-78
2023/05/26 10:51:32;;;;;;;4.47;1.65;;;13.90;99.90;;;;;;5001075;28;20060;-78
2023/05/26 10:54:13;;;;;;;8.77;1.73;;;13.80;99.90;;;;;;5003558;28;20042;-76
2023/05/26 10:56:42;;;;;;;5.55;1.25;;;13.80;99.90;;;;;;4986441;28;20508;-77
2023/05/26 10:59:08;;;;;;;5.20;1.40;;;13.90;99.90;;;;;;5003236;28;20124;-77
2023/05/26 11:01:35;;;;;;;7.00;2.08;;;13.90;99.90;;;;;;5001595;28;20133;-80
2023/05/26 11:04:12;;;;;;;5.75;1.38;;;13.90;99.90;;;;;;5003103;28;20046;-77
2023/05/26 11:06:51;;;;;;;5.68;1.60;;;13.90;99.90;;;;;;4982393;28;20463;-75
2023/05/26 11:09:20;;;;;;;8.07;1.52;;;13.90;99.90;;;;;;4993207;28;20050;-76
2023/05/26 11:11:57;;;;;;;13.43;1.58;;;14.00;99.90;;;;;;5000576;28;20060;-76
2023/05/26 11:14:27;;;;;;;4.57;1.92;;;14.00;99.90;;;;;;4998929;28;20061;-76
2023/05/26 11:16:59;;;;;;;19.33;3.03;;;14.10;99.90;;;;;;5000665;28;20144;-75
2023/05/26 11:19:33;;;;;;;5.78;2.05;;;14.10;99.90;;;;;;5002802;28;20081;-75
2023/05/26 11:22:07;;;;;;;5.55;1.13;;;14.10;99.90;;;;;;5001790;28;20068;-75
2023/05/26 11:24:33;;;;;;;4.78;1.55;;;14.10;99.90;;;;;;5001284;28;20174;-75
2023/05/26 11:27:01;;;;;;;6.53;1.65;;;14.10;99.90;;;;;;5002520;28;20049;-75
2023/05/26 11:29:27;;;;;;;5.60;1.55;;;14.10;99.90;;;;;;5001582;28;20053;-75
2023/05/26 11:31:53;;;;;;;4.07;2.17;;;14.10;99.90;;;;;;4996827;28;20050;-74
2023/05/26 11:34:21;;;;;;;15.73;2.47;;;14.20;99.90;;;;;;5002250;28;20037;-74
2023/05/26 11:36:48;;;;;;;10.07;2.00;;;14.20;99.90;;;;;;5002075;28;20128;-75
2023/05/26 11:39:14;;;;;;;4.97;1.70;;;14.10;99.90;;;;;;5002702;28;20388;-75
2023/05/26 11:41:41;;;;;;;8.55;1.52;;;14.10;99.90;;;;;;5001598;28;20077;-75
2023/05/26 11:44:15;;;;;;;6.60;2.42;;;14.20;99.90;;;;;;5000501;28;20042;-74
2023/05/26 11:46:42;;;;;;;9.25;2.28;;;14.20;99.90;;;;;;4999729;28;20149;-75
2023/05/26 11:49:17;;;;;;;8.55;1.70;;;14.20;99.90;;;;;;5001563;28;20104;-75
2023/05/26 11:51:50;;;;;;;12.82;1.75;;;14.20;99.90;;;;;;4986922;28;20090;-75
2023/05/26 11:54:18;;;;;;;5.72;2.13;;;14.20;99.90;;;;;;4987252;28;20058;-75
2023/05/26 11:56:45;;;;;;;4.30;1.38;;;14.20;99.90;;;;;;4999246;28;20034;-75
2023/05/26 11:59:16;;;;;;;6.50;1.70;;;14.20;99.90;;;;;;5005548;28;20046;-75
2023/05/26 12:01:42;;;;;;;6.55;2.20;;;14.30;99.90;;;;;;5003994;28;20073;-75
2023/05/26 12:04:07;;;;;;;7.57;1.98;;;14.30;99.90;;;;;;5006151;28;20088;-74
2023/05/26 12:06:40;;;;;;;5.50;2.78;;;14.30;99.90;;;;;;5006153;28;20092;-75
2023/05/26 12:09:22;;;;;;;10.23;2.75;;;14.40;99.90;;;;;;5005012;28;20046;-73
2023/05/26 12:11:52;;;;;;;8.60;1.92;;;14.40;99.90;;;;;;4986143;28;20421;-75
2023/05/26 12:14:18;;;;;;;5.57;1.38;;;14.40;99.90;;;;;;4986679;28;20077;-75
2023/05/26 12:16:50;;;;;;;6.45;1.00;;;14.50;99.90;;;;;;4985428;28;20343;-75
2023/05/26 12:19:18;;;;;;;8.05;1.50;;;14.50;99.90;;;;;;5000589;28;20042;-75
2023/05/26 12:21:46;;;;;;;6.00;1.23;;;14.50;99.90;;;;;;5006006;28;20049;-75
2023/05/26 12:24:13;;;;;;;8.98;1.40;;;14.60;99.90;;;;;;5004951;28;20044;-75
2023/05/26 12:26:39;;;;;;;2.58;1.60;;;14.60;99.90;;;;;;5004162;28;20092;-74
2023/05/26 12:29:18;;;;;;;5.15;1.70;;;14.60;99.90;;;;;;5003086;28;20064;-76
2023/05/26 12:31:50;;;;;;;3.67;1.52;;;14.60;99.90;;;;;;5003458;28;20088;-76
2023/05/26 12:34:21;;;;;;;7.93;1.30;;;14.60;99.90;;;;;;4992107;28;20030;-75
2023/05/26 12:36:48;;;;;;;4.28;2.45;;;14.60;99.90;;;;;;4988301;28;20054;-75
2023/05/26 12:39:15;;;;;;;8.45;2.30;;;14.70;99.90;;;;;;4985618;28;20061;-76
2023/05/26 12:41:42;;;;;;;4.97;2.03;;;14.70;99.90;;;;;;5003905;28;20034;-75
2023/05/26 12:44:08;;;;;;;4.47;1.70;;;14.70;99.90;;;;;;4994231;28;20042;-76
2023/05/26 12:46:34;;;;;;;3.63;1.88;;;14.80;99.90;;;;;;4989610;28;20734;-75
2023/05/26 12:48:59;;;;;;;4.35;1.60;;;14.80;99.90;;;;;;5002864;28;20088;-76